Pacific Journey — 3FFE — position and weather

sailwx.info

Track history (hours):
 
Tides and Currents Weather Stations Pressure Air Temp Water Temp Dewpoint Dewpoint Depression Visibility Wind Speed Wind Dir Waves Ship Positions

Pacific Journey

Last reported at 2014-Oct-21 00:33 UTC. Time now 2014-Oct-21 00:37 UTC.
Position N 36°01' W 006°59'.

Length 180 m; draft 9.5 m.

Type: Cargo ship. MMSI: 371467000.

Date/timePositionNaut miles runAvg speedWind from/ knotsBaromVisibWave heightAir tempDewpointWater temp
2014-Oct-21 00:33N 36°01' W 006°59'1312.6
2014-Oct-20 23:33N 36°05' W 007°13'1912.9
2014-Oct-20 22:06N 36°10' W 007°36'713.4
2014-Oct-20 21:33N 36°12' W 007°44'1313.1
2014-Oct-20 20:33N 36°16' W 008°00'1413.1
2014-Oct-20 19:28N 36°20' W 008°17'1313.0
2014-Oct-20 18:29N 36°23' W 008°32'1213.1
2014-Oct-20 17:33N 36°27' W 008°47'1413.2
2014-Oct-20 16:31N 36°31' W 009°03'1313.0
2014-Oct-20 15:33N 36°34' W 009°18'1413.5
2014-Oct-20 14:33N 36°44' W 009°30'2612.5
2014-Oct-20 12:29N 37°09' W 009°39'1212.6
2014-Oct-20 11:33N 37°20' W 009°43'1313.0
2014-Oct-20 10:33N 37°33' W 009°47'1313.0
2014-Oct-20 09:33N 37°45' W 009°50'1312.6
2014-Oct-20 08:33N 37°58' W 009°53'1312.7
2014-Oct-20 07:33N 38°10' W 009°57'1312.7
2014-Oct-20 06:33N 38°22' W 010°01'1312.6
2014-Oct-20 05:33N 38°35' W 010°05'1312.6
2014-Oct-20 04:31N 38°48' W 010°07'1313.6
2014-Oct-20 03:33N 39°00' W 010°07'1513.2
2014-Oct-20 02:25N 39°16' W 010°07'  
2014-Oct-16 18:33N 50°32' E 000°14'1313.1
2014-Oct-16 17:33N 50°36' E 000°34'1312.9
2014-Oct-16 16:33N 50°43' E 000°51'1612.3
2014-Oct-16 15:14N 50°52' E 001°12'812.5
2014-Oct-16 14:33N 50°58' E 001°22'1312.6
2014-Oct-16 13:33N 51°07' E 001°35'1313.2
2014-Oct-16 12:33N 51°17' E 001°49'1212.4
2014-Oct-16 11:33N 51°28' E 001°57'1212.3
2014-Oct-16 10:33N 51°37' E 002°11'1312.5
2014-Oct-16 09:33N 51°47' E 002°25'1211.8
2014-Oct-16 08:31N 51°57' E 002°34'4711.6
2014-Oct-16 04:30N 52°40' E 003°04'1313.0
2014-Oct-16 03:32N 52°52' E 003°12'1313.3
2014-Oct-16 02:33N 53°04' E 003°20'1313.2
2014-Oct-16 01:33N 53°17' E 003°26'2612.7
2014-Oct-15 23:30N 53°42' E 003°39'1211.9
2014-Oct-15 22:31N 53°49' E 003°54'1212.2
2014-Oct-15 21:31N 53°57' E 004°10'1212.2
2014-Oct-15 20:32N 54°03' E 004°28'1212.7
2014-Oct-15 19:33N 54°05' E 004°49'1313.1
2014-Oct-15 18:33N 54°06' E 005°12'1413.3
2014-Oct-15 17:32N 54°08' E 005°34'1313.3
2014-Oct-15 16:33N 54°09' E 005°56'3812.5
2014-Oct-15 13:33N 54°12' E 007°00'1211.9
2014-Oct-15 12:33N 54°12' E 007°21'1010.5
2014-Oct-15 11:33N 54°06' E 007°35'1412.4
2014-Oct-15 10:25N 53°53' E 007°46'1011.4
2014-Oct-15 09:33N 53°51' E 008°02'1313.3
2014-Oct-15 08:34N 53°42' E 008°19'1313.2
2014-Oct-15 07:33N 53°32' E 008°34'1010.4
2014-Oct-15 06:33N 53°22' E 008°30'10 9.8
2014-Oct-15 05:32N 53°12' E 008°30'6 6.5
2014-Oct-15 04:33N 53°08' E 008°38'3 2.8
2014-Oct-15 03:33N 53°07' E 008°43'0 0.3
2014-Oct-15 02:31N 53°07' E 008°43'0 0.0
2014-Oct-15 01:31N 53°07' E 008°43'0 0.0
2014-Oct-15 00:31N 53°07' E 008°43'0 0.0
2014-Oct-14 23:31N 53°07' E 008°43'0 0.0
2014-Oct-14 22:31N 53°07' E 008°43'0 0.0
2014-Oct-14 21:31N 53°07' E 008°43'0 0.0
2014-Oct-14 20:31N 53°07' E 008°43'0 0.0
2014-Oct-14 19:31N 53°07' E 008°43'0 0.0
2014-Oct-14 18:31N 53°07' E 008°43'0 0.0
2014-Oct-14 17:31N 53°07' E 008°43'0 0.0
2014-Oct-14 16:31N 53°07' E 008°43'0 0.0
2014-Oct-14 15:31N 53°07' E 008°43'0 0.0
2014-Oct-14 14:28N 53°07' E 008°43'0 0.0
2014-Oct-14 13:31N 53°07' E 008°43'0 0.0
2014-Oct-14 12:31N 53°07' E 008°43'0 0.0
2014-Oct-14 11:31N 53°07' E 008°43'0 0.0
2014-Oct-14 10:31N 53°07' E 008°43'0 0.0
2014-Oct-14 09:31N 53°07' E 008°43'0 0.0
2014-Oct-14 08:31N 53°07' E 008°43'0 0.0
2014-Oct-14 07:31N 53°07' E 008°43'0 0.0
2014-Oct-14 06:31N 53°07' E 008°43'0 0.0
2014-Oct-14 05:31N 53°07' E 008°43'0 0.0
2014-Oct-14 04:31N 53°07' E 008°43'0 0.0
2014-Oct-14 03:31N 53°07' E 008°43'0 0.0
2014-Oct-14 02:31N 53°07' E 008°43'0 0.0
2014-Oct-14 01:31N 53°07' E 008°43'0 0.0
2014-Oct-14 00:31N 53°07' E 008°43'0 0.0
2014-Oct-13 23:31N 53°07' E 008°43'0 0.0
2014-Oct-13 22:31N 53°07' E 008°43'0 0.0
2014-Oct-13 21:31N 53°07' E 008°43'0 0.0
2014-Oct-13 20:31N 53°07' E 008°43'0 0.0
2014-Oct-13 19:31N 53°07' E 008°43'0 0.0
2014-Oct-13 18:31N 53°07' E 008°43'0 0.0
2014-Oct-13 17:31N 53°07' E 008°43'0 0.0
2014-Oct-13 16:31N 53°07' E 008°43'0 0.0
2014-Oct-13 15:31N 53°07' E 008°43'0 0.0
2014-Oct-13 14:31N 53°07' E 008°43'0 0.0
2014-Oct-13 13:31N 53°07' E 008°43'0 0.0
2014-Oct-13 12:31N 53°07' E 008°43'0 0.0
2014-Oct-13 11:31N 53°07' E 008°43'0 0.0
2014-Oct-13 10:31N 53°07' E 008°43'0 0.0
2014-Oct-13 09:31N 53°07' E 008°43'0 0.0
2014-Oct-13 08:31N 53°07' E 008°43'0 0.0
2014-Oct-13 07:31N 53°07' E 008°43'0 0.0
2014-Oct-13 06:31N 53°07' E 008°43'0 0.0
2014-Oct-13 05:31N 53°07' E 008°43'0 0.0
2014-Oct-13 04:31N 53°07' E 008°43'0 0.0
2014-Oct-13 03:31N 53°07' E 008°43'0 0.0
2014-Oct-13 02:31N 53°07' E 008°43'0 0.0
2014-Oct-13 01:31N 53°07' E 008°43'0 0.0
2014-Oct-13 00:31N 53°07' E 008°43'0 0.0
2014-Oct-12 23:31N 53°07' E 008°43'0 0.0
2014-Oct-12 22:31N 53°07' E 008°43'0 0.0
2014-Oct-12 21:31N 53°07' E 008°43'0 0.0
2014-Oct-12 20:31N 53°07' E 008°43'0 0.0
2014-Oct-12 19:31N 53°07' E 008°43'0 0.0
2014-Oct-12 18:31N 53°07' E 008°43'0 0.0
2014-Oct-12 17:31N 53°07' E 008°43'0 0.0
2014-Oct-12 16:31N 53°07' E 008°43'0 0.0
2014-Oct-12 15:31N 53°07' E 008°43'0 0.0
2014-Oct-12 14:31N 53°07' E 008°43'0 0.0
2014-Oct-12 13:31N 53°07' E 008°43'0 0.0
2014-Oct-12 12:31N 53°07' E 008°43'0 0.0
2014-Oct-12 11:31N 53°07' E 008°43'0 0.0
2014-Oct-12 10:31N 53°07' E 008°43'0 0.0
2014-Oct-12 09:31N 53°07' E 008°43'0 0.0
2014-Oct-12 08:31N 53°07' E 008°43'0 0.3
2014-Oct-12 07:33N 53°07' E 008°43'5 4.6
2014-Oct-12 06:33N 53°10' E 008°37'8 8.3
2014-Oct-12 05:33N 53°17' E 008°29'10 9.9
2014-Oct-12 04:33N 53°27' E 008°29'8 7.8
2014-Oct-12 03:33N 53°35' E 008°32'10 9.7
2014-Oct-12 02:33N 53°42' E 008°21'8 8.1
2014-Oct-12 01:33N 53°47' E 008°10'9 8.8
2014-Oct-12 00:33N 53°51' E 007°57'9 9.2
2014-Oct-11 23:33N 53°54' E 007°42'9 8.9
2014-Oct-11 22:33N 54°02' E 007°34'4 3.8
2014-Oct-11 21:22N 54°05' E 007°29'0 0.0
2014-Oct-11 20:31N 54°05' E 007°29'0 0.1
2014-Oct-11 19:25N 54°05' E 007°28'0 0.1
2014-Oct-11 18:31N 54°05' E 007°28'0 0.0
2014-Oct-11 17:28N 54°05' E 007°28'0 0.0
2014-Oct-11 16:31N 54°05' E 007°28'0 0.0
2014-Oct-11 15:31N 54°05' E 007°28'0 0.1
2014-Oct-11 14:28N 54°05' E 007°29'0 0.1
2014-Oct-11 13:28N 54°05' E 007°29'0 0.0
2014-Oct-11 12:31N 54°05' E 007°29'0 0.0
2014-Oct-11 11:31N 54°05' E 007°29'0 0.0
2014-Oct-11 10:31N 54°05' E 007°29'0 0.0
2014-Oct-11 09:31N 54°05' E 007°29'0 0.0
2014-Oct-11 08:31N 54°05' E 007°29'0 0.1
2014-Oct-11 07:31N 54°05' E 007°29'0 0.1
2014-Oct-11 06:31N 54°05' E 007°28'0 0.0
2014-Oct-11 05:31N 54°05' E 007°28'0 0.0
2014-Oct-11 04:31N 54°05' E 007°28'0 0.0
2014-Oct-11 03:31N 54°05' E 007°28'0 0.1
2014-Oct-11 02:28N 54°05' E 007°29'0 0.1
2014-Oct-11 01:28N 54°05' E 007°29'  
Track history (hours):
 
Tides and Currents Weather Stations Pressure Air Temp Water Temp Dewpoint Dewpoint Depression Visibility Wind Speed Wind Dir Waves Ship Positions

Pacific Journey

Last reported at 2014-Oct-21 00:33 UTC. Time now 2014-Oct-21 00:37 UTC.
Position N 36°01' W 006°59'.

Length 180 m; draft 9.5 m.

Type: Cargo ship. MMSI: 371467000.

Date/timePositionNaut miles runAvg speedWind from/ knotsBaromVisibWave heightAir tempDewpointWater temp
2014-Oct-21 00:33N 36°01' W 006°59'1312.6
2014-Oct-20 23:33N 36°05' W 007°13'1912.9
2014-Oct-20 22:06N 36°10' W 007°36'713.4
2014-Oct-20 21:33N 36°12' W 007°44'1313.1
2014-Oct-20 20:33N 36°16' W 008°00'1413.1
2014-Oct-20 19:28N 36°20' W 008°17'1313.0
2014-Oct-20 18:29N 36°23' W 008°32'1213.1
2014-Oct-20 17:33N 36°27' W 008°47'1413.2
2014-Oct-20 16:31N 36°31' W 009°03'1313.0
2014-Oct-20 15:33N 36°34' W 009°18'1413.5
2014-Oct-20 14:33N 36°44' W 009°30'2612.5
2014-Oct-20 12:29N 37°09' W 009°39'1212.6
2014-Oct-20 11:33N 37°20' W 009°43'1313.0
2014-Oct-20 10:33N 37°33' W 009°47'1313.0
2014-Oct-20 09:33N 37°45' W 009°50'1312.6
2014-Oct-20 08:33N 37°58' W 009°53'1312.7
2014-Oct-20 07:33N 38°10' W 009°57'1312.7
2014-Oct-20 06:33N 38°22' W 010°01'1312.6
2014-Oct-20 05:33N 38°35' W 010°05'1312.6
2014-Oct-20 04:31N 38°48' W 010°07'1313.6
2014-Oct-20 03:33N 39°00' W 010°07'1513.2
2014-Oct-20 02:25N 39°16' W 010°07'  
2014-Oct-16 18:33N 50°32' E 000°14'1313.1
2014-Oct-16 17:33N 50°36' E 000°34'1312.9
2014-Oct-16 16:33N 50°43' E 000°51'1612.3
2014-Oct-16 15:14N 50°52' E 001°12'812.5
2014-Oct-16 14:33N 50°58' E 001°22'1312.6
2014-Oct-16 13:33N 51°07' E 001°35'1313.2
2014-Oct-16 12:33N 51°17' E 001°49'1212.4
2014-Oct-16 11:33N 51°28' E 001°57'1212.3
2014-Oct-16 10:33N 51°37' E 002°11'1312.5
2014-Oct-16 09:33N 51°47' E 002°25'1211.8
2014-Oct-16 08:31N 51°57' E 002°34'4711.6
2014-Oct-16 04:30N 52°40' E 003°04'1313.0
2014-Oct-16 03:32N 52°52' E 003°12'1313.3
2014-Oct-16 02:33N 53°04' E 003°20'1313.2
2014-Oct-16 01:33N 53°17' E 003°26'2612.7
2014-Oct-15 23:30N 53°42' E 003°39'1211.9
2014-Oct-15 22:31N 53°49' E 003°54'1212.2
2014-Oct-15 21:31N 53°57' E 004°10'1212.2
2014-Oct-15 20:32N 54°03' E 004°28'1212.7
2014-Oct-15 19:33N 54°05' E 004°49'1313.1
2014-Oct-15 18:33N 54°06' E 005°12'1413.3
2014-Oct-15 17:32N 54°08' E 005°34'1313.3
2014-Oct-15 16:33N 54°09' E 005°56'3812.5
2014-Oct-15 13:33N 54°12' E 007°00'1211.9
2014-Oct-15 12:33N 54°12' E 007°21'1010.5
2014-Oct-15 11:33N 54°06' E 007°35'1412.4
2014-Oct-15 10:25N 53°53' E 007°46'1011.4
2014-Oct-15 09:33N 53°51' E 008°02'1313.3
2014-Oct-15 08:34N 53°42' E 008°19'1313.2
2014-Oct-15 07:33N 53°32' E 008°34'1010.4
2014-Oct-15 06:33N 53°22' E 008°30'10 9.8
2014-Oct-15 05:32N 53°12' E 008°30'6 6.5
2014-Oct-15 04:33N 53°08' E 008°38'3 2.8
2014-Oct-15 03:33N 53°07' E 008°43'0 0.3
2014-Oct-15 02:31N 53°07' E 008°43'0 0.0
2014-Oct-15 01:31N 53°07' E 008°43'0 0.0
2014-Oct-15 00:31N 53°07' E 008°43'0 0.0
2014-Oct-14 23:31N 53°07' E 008°43'0 0.0
2014-Oct-14 22:31N 53°07' E 008°43'0 0.0
2014-Oct-14 21:31N 53°07' E 008°43'0 0.0
2014-Oct-14 20:31N 53°07' E 008°43'0 0.0
2014-Oct-14 19:31N 53°07' E 008°43'0 0.0
2014-Oct-14 18:31N 53°07' E 008°43'0 0.0
2014-Oct-14 17:31N 53°07' E 008°43'0 0.0
2014-Oct-14 16:31N 53°07' E 008°43'0 0.0
2014-Oct-14 15:31N 53°07' E 008°43'0 0.0
2014-Oct-14 14:28N 53°07' E 008°43'0 0.0
2014-Oct-14 13:31N 53°07' E 008°43'0 0.0
2014-Oct-14 12:31N 53°07' E 008°43'0 0.0
2014-Oct-14 11:31N 53°07' E 008°43'0 0.0
2014-Oct-14 10:31N 53°07' E 008°43'0 0.0
2014-Oct-14 09:31N 53°07' E 008°43'0 0.0
2014-Oct-14 08:31N 53°07' E 008°43'0 0.0
2014-Oct-14 07:31N 53°07' E 008°43'0 0.0
2014-Oct-14 06:31N 53°07' E 008°43'0 0.0
2014-Oct-14 05:31N 53°07' E 008°43'0 0.0
2014-Oct-14 04:31N 53°07' E 008°43'0 0.0
2014-Oct-14 03:31N 53°07' E 008°43'0 0.0
2014-Oct-14 02:31N 53°07' E 008°43'0 0.0
2014-Oct-14 01:31N 53°07' E 008°43'0 0.0
2014-Oct-14 00:31N 53°07' E 008°43'0 0.0
2014-Oct-13 23:31N 53°07' E 008°43'0 0.0
2014-Oct-13 22:31N 53°07' E 008°43'0 0.0
2014-Oct-13 21:31N 53°07' E 008°43'0 0.0
2014-Oct-13 20:31N 53°07' E 008°43'0 0.0
2014-Oct-13 19:31N 53°07' E 008°43'0 0.0
2014-Oct-13 18:31N 53°07' E 008°43'0 0.0
2014-Oct-13 17:31N 53°07' E 008°43'0 0.0
2014-Oct-13 16:31N 53°07' E 008°43'0 0.0
2014-Oct-13 15:31N 53°07' E 008°43'0 0.0
2014-Oct-13 14:31N 53°07' E 008°43'0 0.0
2014-Oct-13 13:31N 53°07' E 008°43'0 0.0
2014-Oct-13 12:31N 53°07' E 008°43'0 0.0
2014-Oct-13 11:31N 53°07' E 008°43'0 0.0
2014-Oct-13 10:31N 53°07' E 008°43'0 0.0
2014-Oct-13 09:31N 53°07' E 008°43'0 0.0
2014-Oct-13 08:31N 53°07' E 008°43'0 0.0
2014-Oct-13 07:31N 53°07' E 008°43'0 0.0
2014-Oct-13 06:31N 53°07' E 008°43'0 0.0
2014-Oct-13 05:31N 53°07' E 008°43'0 0.0
2014-Oct-13 04:31N 53°07' E 008°43'0 0.0
2014-Oct-13 03:31N 53°07' E 008°43'0 0.0
2014-Oct-13 02:31N 53°07' E 008°43'0 0.0
2014-Oct-13 01:31N 53°07' E 008°43'0 0.0
2014-Oct-13 00:31N 53°07' E 008°43'0 0.0
2014-Oct-12 23:31N 53°07' E 008°43'0 0.0
2014-Oct-12 22:31N 53°07' E 008°43'0 0.0
2014-Oct-12 21:31N 53°07' E 008°43'0 0.0
2014-Oct-12 20:31N 53°07' E 008°43'0 0.0
2014-Oct-12 19:31N 53°07' E 008°43'0 0.0
2014-Oct-12 18:31N 53°07' E 008°43'0 0.0
2014-Oct-12 17:31N 53°07' E 008°43'0 0.0
2014-Oct-12 16:31N 53°07' E 008°43'0 0.0
2014-Oct-12 15:31N 53°07' E 008°43'0 0.0
2014-Oct-12 14:31N 53°07' E 008°43'0 0.0
2014-Oct-12 13:31N 53°07' E 008°43'0 0.0
2014-Oct-12 12:31N 53°07' E 008°43'0 0.0
2014-Oct-12 11:31N 53°07' E 008°43'0 0.0
2014-Oct-12 10:31N 53°07' E 008°43'0 0.0
2014-Oct-12 09:31N 53°07' E 008°43'0 0.0
2014-Oct-12 08:31N 53°07' E 008°43'0 0.3
2014-Oct-12 07:33N 53°07' E 008°43'5 4.6
2014-Oct-12 06:33N 53°10' E 008°37'8 8.3
2014-Oct-12 05:33N 53°17' E 008°29'10 9.9
2014-Oct-12 04:33N 53°27' E 008°29'8 7.8
2014-Oct-12 03:33N 53°35' E 008°32'10 9.7
2014-Oct-12 02:33N 53°42' E 008°21'8 8.1
2014-Oct-12 01:33N 53°47' E 008°10'9 8.8
2014-Oct-12 00:33N 53°51' E 007°57'9 9.2
2014-Oct-11 23:33N 53°54' E 007°42'9 8.9
2014-Oct-11 22:33N 54°02' E 007°34'4 3.8
2014-Oct-11 21:22N 54°05' E 007°29'0 0.0
2014-Oct-11 20:31N 54°05' E 007°29'0 0.1
2014-Oct-11 19:25N 54°05' E 007°28'0 0.1
2014-Oct-11 18:31N 54°05' E 007°28'0 0.0
2014-Oct-11 17:28N 54°05' E 007°28'0 0.0
2014-Oct-11 16:31N 54°05' E 007°28'0 0.0
2014-Oct-11 15:31N 54°05' E 007°28'0 0.1
2014-Oct-11 14:28N 54°05' E 007°29'0 0.1
2014-Oct-11 13:28N 54°05' E 007°29'0 0.0
2014-Oct-11 12:31N 54°05' E 007°29'0 0.0
2014-Oct-11 11:31N 54°05' E 007°29'0 0.0
2014-Oct-11 10:31N 54°05' E 007°29'0 0.0
2014-Oct-11 09:31N 54°05' E 007°29'0 0.0
2014-Oct-11 08:31N 54°05' E 007°29'0 0.1
2014-Oct-11 07:31N 54°05' E 007°29'0 0.1
2014-Oct-11 06:31N 54°05' E 007°28'0 0.0
2014-Oct-11 05:31N 54°05' E 007°28'0 0.0
2014-Oct-11 04:31N 54°05' E 007°28'0 0.0
2014-Oct-11 03:31N 54°05' E 007°28'0 0.1
2014-Oct-11 02:28N 54°05' E 007°29'0 0.1
2014-Oct-11 01:28N 54°05' E 007°29'  

Dump ship's entire track history